Time;durP1;ratioP1;P1;durP2;ratioP2;P2;SDS_P1;SDS_P2;PMS_P1;PMS_P2;Temp;Humidity;BMP_temperature;BMP_pressure;BME280_temperature;BME280_humidity;BME280_pressure;Samples;Min_cycle;Max_cycle;Signal;HPM_P1;HPM_P2
2023/04/12 00:01:30;;;;;;;9.90;6.60;;;2.10;99.90;;;;;;5019172;28;20256;-79
2023/04/12 00:03:57;;;;;;;12.87;6.70;;;2.10;99.90;;;;;;5021078;28;20253;-80
2023/04/12 00:06:26;;;;;;;9.47;6.67;;;2.00;99.90;;;;;;5019243;28;20246;-80
2023/04/12 00:08:53;;;;;;;12.20;6.70;;;2.10;99.90;;;;;;5032952;28;20480;-79
2023/04/12 00:11:20;;;;;;;18.27;7.63;;;2.00;99.90;;;;;;5018336;28;20217;-79
2023/04/12 00:13:46;;;;;;;11.97;7.07;;;2.10;99.90;;;;;;5021051;28;20226;-79
2023/04/12 00:16:14;;;;;;;14.80;7.23;;;2.00;99.90;;;;;;5017360;28;20236;-79
2023/04/12 00:18:44;;;;;;;9.83;6.20;;;2.00;99.90;;;;;;5017555;28;20236;-80
2023/04/12 00:21:11;;;;;;;12.20;6.87;;;2.00;99.90;;;;;;5030001;28;20228;-80
2023/04/12 00:23:38;;;;;;;9.60;5.83;;;2.00;99.90;;;;;;5017940;28;20253;-80
2023/04/12 00:26:05;;;;;;;11.87;6.10;;;2.00;99.90;;;;;;5020695;28;20275;-80
2023/04/12 00:28:32;;;;;;;11.07;6.17;;;2.00;99.90;;;;;;5022468;28;20633;-79
2023/04/12 00:30:59;;;;;;;11.43;5.90;;;2.00;99.90;;;;;;5019154;28;20615;-79
2023/04/12 00:33:27;;;;;;;11.07;6.10;;;2.00;99.90;;;;;;5019363;28;20225;-79
2023/04/12 00:35:55;;;;;;;11.80;5.47;;;2.00;99.90;;;;;;5017592;28;20225;-79
2023/04/12 00:38:22;;;;;;;9.10;5.37;;;1.90;99.90;;;;;;5039772;23;20218;-82
2023/04/12 00:40:49;;;;;;;7.53;5.40;;;2.00;99.90;;;;;;5017102;28;20213;-80
2023/04/12 00:43:17;;;;;;;11.27;6.00;;;2.00;99.90;;;;;;5021437;28;20219;-81
2023/04/12 00:45:44;;;;;;;7.17;5.03;;;2.00;99.90;;;;;;5021837;28;20355;-80
2023/04/12 00:48:12;;;;;;;12.13;5.80;;;1.90;99.90;;;;;;5019958;28;20750;-83
2023/04/12 00:50:43;;;;;;;11.43;6.07;;;1.80;99.90;;;;;;5025593;28;20233;-81
2023/04/12 00:53:13;;;;;;;261.97;21.40;;;1.90;99.90;;;;;;5022533;28;20220;-81
2023/04/12 00:55:41;;;;;;;8.60;4.90;;;1.90;99.90;;;;;;5023255;28;20273;-81
2023/04/12 00:58:08;;;;;;;27.80;6.03;;;1.90;99.90;;;;;;5019387;28;20223;-81
2023/04/12 01:00:35;;;;;;;8.17;5.40;;;1.80;99.90;;;;;;5021609;28;20231;-81
2023/04/12 01:03:04;;;;;;;10.53;4.80;;;1.80;99.90;;;;;;5022278;28;20222;-83
2023/04/12 01:05:35;;;;;;;11.37;5.10;;;1.80;99.90;;;;;;5017218;28;20750;-80
2023/04/12 01:08:10;;;;;;;7.70;4.73;;;1.80;99.90;;;;;;5022472;28;20702;-81
2023/04/12 01:10:46;;;;;;;9.93;4.77;;;1.80;99.90;;;;;;5037829;28;20251;-82
2023/04/12 01:13:28;;;;;;;8.13;4.07;;;1.70;99.90;;;;;;5033605;28;20463;-83
2023/04/12 01:16:02;;;;;;;5.90;4.40;;;1.70;99.90;;;;;;5037804;28;20241;-81
2023/04/12 01:18:33;;;;;;;8.83;4.30;;;1.70;99.90;;;;;;5035924;28;20248;-80
2023/04/12 01:21:06;;;;;;;8.47;4.80;;;1.70;99.90;;;;;;5020545;28;20676;-81
2023/04/12 01:23:51;;;;;;;7.40;4.27;;;1.60;99.90;;;;;;5017850;28;20270;-82
2023/04/12 01:26:31;;;;;;;7.97;4.53;;;1.60;99.90;;;;;;5021842;28;20217;-83
2023/04/12 01:29:08;;;;;;;6.23;3.87;;;1.60;99.90;;;;;;5019832;28;20239;-81
2023/04/12 01:31:36;;;;;;;6.87;4.67;;;1.60;99.90;;;;;;5013983;28;20320;-79
2023/04/12 01:34:05;;;;;;;8.13;4.20;;;1.60;99.90;;;;;;5016910;28;20785;-80
2023/04/12 01:36:32;;;;;;;10.73;4.33;;;1.60;99.90;;;;;;5020818;28;20233;-81
2023/04/12 01:39:03;;;;;;;8.33;4.13;;;1.60;99.90;;;;;;5036867;28;20217;-79
2023/04/12 01:41:32;;;;;;;8.83;3.93;;;1.60;99.90;;;;;;5017990;28;20225;-82
2023/04/12 01:43:59;;;;;;;6.10;4.20;;;1.60;99.90;;;;;;5021205;28;20275;-83
2023/04/12 01:46:27;;;;;;;9.40;4.10;;;1.60;99.90;;;;;;5019499;28;20231;-79
2023/04/12 01:48:56;;;;;;;6.23;3.93;;;1.60;99.90;;;;;;5019332;28;20229;-81
2023/04/12 01:51:34;;;;;;;7.70;3.63;;;1.50;99.90;;;;;;5037160;28;20218;-86
2023/04/12 01:54:10;;;;;;;8.90;3.80;;;1.50;99.90;;;;;;5020410;28;20226;-81
2023/04/12 01:56:39;;;;;;;11.07;3.43;;;1.60;99.90;;;;;;5021874;28;20239;-78
2023/04/12 01:59:07;;;;;;;8.50;3.90;;;1.60;99.90;;;;;;5020100;28;20252;-82
2023/04/12 02:01:36;;;;;;;8.77;3.70;;;1.60;99.90;;;;;;5016409;28;20714;-81
2023/04/12 02:04:04;;;;;;;5.90;3.27;;;1.60;99.90;;;;;;5020424;28;20213;-79
2023/04/12 02:06:33;;;;;;;9.23;3.10;;;1.60;99.90;;;;;;5021172;28;20232;-81
2023/04/12 02:09:01;;;;;;;5.23;3.30;;;1.70;99.90;;;;;;5037048;28;20225;-79
2023/04/12 02:11:28;;;;;;;5.73;3.10;;;1.70;99.90;;;;;;5010753;28;20241;-84
2023/04/12 02:13:55;;;;;;;8.00;3.43;;;1.80;99.90;;;;;;5035226;28;20245;-81
2023/04/12 02:16:22;;;;;;;5.77;2.60;;;1.70;99.90;;;;;;5021744;28;20327;-80
2023/04/12 02:18:51;;;;;;;7.37;2.70;;;1.70;99.90;;;;;;5021430;28;20227;-78
2023/04/12 02:21:17;;;;;;;9.40;3.10;;;1.80;99.90;;;;;;5017125;28;20678;-78
2023/04/12 02:23:44;;;;;;;6.37;3.17;;;1.80;99.90;;;;;;5030538;28;20237;-78
2023/04/12 02:26:11;;;;;;;10.47;3.40;;;1.80;99.90;;;;;;5019711;28;20751;-80
2023/04/12 02:28:39;;;;;;;5.47;3.00;;;1.80;99.90;;;;;;5017636;28;20226;-78
2023/04/12 02:31:08;;;;;;;10.17;3.17;;;1.80;99.90;;;;;;5015898;28;20675;-78
2023/04/12 02:33:35;;;;;;;6.83;3.10;;;1.80;99.90;;;;;;5020458;28;20226;-82
2023/04/12 02:36:11;;;;;;;7.33;3.13;;;1.80;99.90;;;;;;5035971;28;20232;-77
2023/04/12 02:38:38;;;;;;;10.33;3.27;;;1.80;99.90;;;;;;5026797;28;20259;-81
2023/04/12 02:41:07;;;;;;;9.10;3.77;;;1.80;99.90;;;;;;5019007;28;20781;-79
2023/04/12 02:43:35;;;;;;;7.40;3.10;;;1.80;99.90;;;;;;5013701;28;20231;-80
2023/04/12 02:46:07;;;;;;;5.80;2.73;;;1.80;99.90;;;;;;5016388;28;20221;-79
2023/04/12 02:48:41;;;;;;;5.23;3.07;;;1.80;99.90;;;;;;5019200;28;20243;-81
2023/04/12 02:51:10;;;;;;;6.87;2.87;;;1.80;99.90;;;;;;5019238;28;20255;-80
2023/04/12 02:53:38;;;;;;;5.87;2.93;;;1.80;99.90;;;;;;5018055;28;20723;-81
2023/04/12 02:56:23;;;;;;;6.87;2.93;;;1.80;99.90;;;;;;5018162;28;20213;-79
2023/04/12 02:58:55;;;;;;;9.07;2.90;;;1.80;99.90;;;;;;5016812;28;20325;-79
2023/04/12 03:01:45;;;;;;;6.40;3.00;;;1.70;99.90;;;;;;5019527;28;20237;-78
2023/04/12 03:04:28;;;;;;;7.13;3.17;;;1.70;99.90;;;;;;5014229;28;20232;-84
2023/04/12 03:06:58;;;;;;;5.87;2.90;;;1.70;99.90;;;;;;5021996;28;20217;-81
2023/04/12 03:09:32;;;;;;;8.27;2.80;;;1.70;99.90;;;;;;5020121;28;20242;-80
2023/04/12 03:11:59;;;;;;;6.27;2.73;;;1.70;99.90;;;;;;5036647;28;20228;-82
2023/04/12 03:14:25;;;;;;;6.07;3.00;;;1.70;99.90;;;;;;5021886;28;20281;-85
2023/04/12 03:16:52;;;;;;;5.63;3.00;;;1.70;99.90;;;;;;5034924;28;20307;-79
2023/04/12 03:19:20;;;;;;;5.90;2.77;;;1.70;99.90;;;;;;5016874;28;20223;-79
2023/04/12 03:21:52;;;;;;;7.10;3.47;;;1.70;99.90;;;;;;5015689;28;20223;-80
2023/04/12 03:24:21;;;;;;;6.70;2.60;;;1.70;99.90;;;;;;5017336;28;20252;-80
2023/04/12 03:26:48;;;;;;;5.50;2.77;;;1.70;99.90;;;;;;5016366;28;20217;-80
2023/04/12 03:29:20;;;;;;;4.67;2.50;;;1.70;99.90;;;;;;5016740;28;20282;-81
2023/04/12 03:31:49;;;;;;;8.00;3.07;;;1.70;99.90;;;;;;5019010;28;20221;-78
2023/04/12 03:34:15;;;;;;;8.33;2.87;;;1.70;99.90;;;;;;5017818;28;20225;-78
2023/04/12 03:36:46;;;;;;;6.47;2.77;;;1.70;99.90;;;;;;5016450;28;20293;-80
2023/04/12 03:39:22;;;;;;;4.60;3.00;;;1.70;99.90;;;;;;5015560;28;20216;-81
2023/04/12 03:41:52;;;;;;;4.93;2.67;;;1.70;99.90;;;;;;5020445;28;20220;-80
2023/04/12 03:44:20;;;;;;;6.70;2.73;;;1.80;99.90;;;;;;5017732;28;20240;-80
2023/04/12 03:46:48;;;;;;;5.33;2.50;;;1.80;99.90;;;;;;5015481;28;20287;-79
2023/04/12 03:49:16;;;;;;;5.43;2.50;;;1.80;99.90;;;;;;5016903;28;20241;-82
2023/04/12 03:51:44;;;;;;;7.87;2.83;;;1.80;99.90;;;;;;5020159;28;20248;-80
2023/04/12 03:54:12;;;;;;;7.67;2.73;;;1.90;99.90;;;;;;5018374;28;20217;-82
2023/04/12 03:56:52;;;;;;;6.83;2.80;;;1.90;99.90;;;;;;5017484;28;20275;-79
2023/04/12 03:59:24;;;;;;;5.30;2.73;;;1.90;99.90;;;;;;5020055;28;20239;-80
2023/04/12 04:01:51;;;;;;;7.40;2.97;;;2.00;99.90;;;;;;5018834;28;20215;-79
2023/04/12 04:04:18;;;;;;;4.73;2.63;;;2.00;99.90;;;;;;5017506;28;20220;-78
2023/04/12 04:07:05;;;;;;;6.70;2.50;;;2.00;99.90;;;;;;5019296;28;20234;-78
2023/04/12 04:09:40;;;;;;;4.33;2.57;;;2.10;99.90;;;;;;5014601;28;20266;-79
2023/04/12 04:12:08;;;;;;;9.87;2.67;;;2.10;99.90;;;;;;5018250;28;20228;-78
2023/04/12 04:14:37;;;;;;;4.03;2.20;;;2.10;99.90;;;;;;5020589;28;20311;-78
2023/04/12 04:17:06;;;;;;;5.23;2.87;;;2.10;99.90;;;;;;5020585;28;20292;-79
2023/04/12 04:19:34;;;;;;;6.37;2.20;;;2.10;99.90;;;;;;5037775;28;20253;-79
2023/04/12 04:22:02;;;;;;;6.90;2.70;;;2.10;99.90;;;;;;5021856;28;20983;-79
2023/04/12 04:24:29;;;;;;;5.60;2.37;;;2.20;99.90;;;;;;5018795;28;20228;-79
2023/04/12 04:26:59;;;;;;;4.90;2.60;;;2.20;99.90;;;;;;5023285;28;20219;-81
2023/04/12 04:29:30;;;;;;;4.97;2.30;;;2.20;99.90;;;;;;5017462;28;20324;-83
2023/04/12 04:31:58;;;;;;;7.77;2.30;;;2.20;99.90;;;;;;5017771;28;20213;-80
2023/04/12 04:34:26;;;;;;;5.03;2.30;;;2.20;99.90;;;;;;5019286;28;20228;-80
2023/04/12 04:37:01;;;;;;;6.70;2.37;;;2.20;99.90;;;;;;5038407;28;20271;-82
2023/04/12 04:39:28;;;;;;;8.27;2.60;;;2.30;99.90;;;;;;5027120;28;20229;-80
2023/04/12 04:41:58;;;;;;;19.47;3.07;;;2.30;99.90;;;;;;5025402;28;20603;-81
2023/04/12 04:44:59;;;;;;;6.30;2.20;;;2.30;99.90;;;;;;5016359;28;20224;-79
2023/04/12 04:47:29;;;;;;;4.50;2.10;;;2.30;99.90;;;;;;5023876;28;20221;-79
2023/04/12 04:49:56;;;;;;;7.47;2.87;;;2.40;99.90;;;;;;5020945;28;20230;-79
2023/04/12 04:52:26;;;;;;;4.57;2.20;;;2.40;99.90;;;;;;5022144;28;20754;-79
2023/04/12 04:54:58;;;;;;;5.70;2.53;;;2.40;99.90;;;;;;5026868;28;20870;-80
2023/04/12 04:57:30;;;;;;;6.20;2.33;;;2.50;99.90;;;;;;5024203;28;20244;-79
2023/04/12 04:59:58;;;;;;;6.90;2.57;;;2.50;99.90;;;;;;5027584;28;20225;-79
2023/04/12 05:02:25;;;;;;;4.37;2.03;;;2.50;99.90;;;;;;5020212;28;20241;-79
2023/04/12 05:04:55;;;;;;;5.33;2.40;;;2.60;99.90;;;;;;5023713;28;20226;-79
2023/04/12 05:07:25;;;;;;;5.93;2.60;;;2.60;99.90;;;;;;5035360;28;20321;-78
2023/04/12 05:09:51;;;;;;;5.07;2.20;;;2.60;99.90;;;;;;5022035;28;20941;-78
2023/04/12 05:12:20;;;;;;;3.87;2.00;;;2.60;99.90;;;;;;5021771;28;20639;-81
2023/04/12 05:14:51;;;;;;;6.17;2.43;;;2.50;99.90;;;;;;5016712;28;20221;-79
2023/04/12 05:17:19;;;;;;;5.53;2.27;;;2.50;99.90;;;;;;5018241;28;20219;-81
2023/04/12 05:19:46;;;;;;;6.50;2.57;;;2.50;99.90;;;;;;5021751;28;20227;-79
2023/04/12 05:22:13;;;;;;;5.40;2.23;;;2.50;99.90;;;;;;5022458;28;20234;-80
2023/04/12 05:24:40;;;;;;;4.63;2.50;;;2.60;99.90;;;;;;5019167;28;20214;-78
2023/04/12 05:27:06;;;;;;;4.67;2.57;;;2.60;99.90;;;;;;5018988;28;20228;-80
2023/04/12 05:29:34;;;;;;;7.70;2.57;;;2.60;99.90;;;;;;5020809;28;20226;-79
2023/04/12 05:32:01;;;;;;;8.00;2.93;;;2.60;99.90;;;;;;5021745;28;20307;-82
2023/04/12 05:34:29;;;;;;;5.80;2.77;;;2.70;99.90;;;;;;5021039;28;20319;-78
2023/04/12 05:36:58;;;;;;;4.80;2.47;;;2.70;99.90;;;;;;5022197;28;20687;-79
2023/04/12 05:39:26;;;;;;;4.27;2.10;;;2.80;99.90;;;;;;5018146;28;20230;-81
2023/04/12 05:41:53;;;;;;;7.43;2.17;;;2.90;99.90;;;;;;5020251;28;20222;-78
2023/04/12 05:44:20;;;;;;;6.43;2.13;;;3.00;99.90;;;;;;5022842;28;20247;-79
2023/04/12 05:46:47;;;;;;;3.40;2.20;;;3.10;99.90;;;;;;5018730;28;20227;-78
2023/04/12 05:49:14;;;;;;;5.00;2.97;;;3.20;99.90;;;;;;5024113;28;20308;-79
2023/04/12 05:51:43;;;;;;;5.67;2.43;;;3.30;99.90;;;;;;5023982;28;20340;-80
2023/04/12 05:54:19;;;;;;;4.13;2.03;;;3.40;99.90;;;;;;5021891;28;20264;-79
2023/04/12 05:56:47;;;;;;;7.23;2.40;;;3.50;99.90;;;;;;5024303;28;20801;-81
2023/04/12 05:59:15;;;;;;;4.07;2.40;;;3.50;99.90;;;;;;5023097;28;20242;-81
2023/04/12 06:01:43;;;;;;;4.07;1.97;;;3.60;99.90;;;;;;5008399;28;20306;-78
2023/04/12 06:04:10;;;;;;;7.23;2.30;;;3.70;99.90;;;;;;5020389;28;20761;-78
2023/04/12 06:06:38;;;;;;;4.53;2.50;;;3.70;99.90;;;;;;5025740;28;20329;-78
2023/04/12 06:09:06;;;;;;;5.20;2.10;;;3.80;99.90;;;;;;5024647;28;20824;-80
2023/04/12 06:11:33;;;;;;;3.80;2.10;;;3.80;99.90;;;;;;5030069;28;20225;-81
2023/04/12 06:14:00;;;;;;;6.70;2.53;;;3.90;99.90;;;;;;5026011;28;20229;-78
2023/04/12 06:16:27;;;;;;;6.10;2.50;;;3.90;99.90;;;;;;5024500;28;20272;-79
2023/04/12 06:18:54;;;;;;;4.93;2.33;;;4.10;99.90;;;;;;5026921;28;20226;-78
2023/04/12 06:21:21;;;;;;;2.97;2.13;;;4.30;99.90;;;;;;5022265;28;20285;-79
2023/04/12 06:23:47;;;;;;;4.53;2.50;;;4.50;99.90;;;;;;5024404;28;20778;-83
2023/04/12 06:26:15;;;;;;;4.93;2.60;;;4.80;99.90;;;;;;5041707;28;20247;-79
2023/04/12 06:28:42;;;;;;;4.53;2.17;;;5.10;99.90;;;;;;5025621;28;20230;-78
2023/04/12 06:31:10;;;;;;;5.43;2.00;;;5.30;99.90;;;;;;5025066;28;20828;-81
2023/04/12 06:33:39;;;;;;;4.33;2.37;;;5.50;99.90;;;;;;5040151;28;20237;-79
2023/04/12 06:36:10;;;;;;;3.17;1.90;;;5.70;99.90;;;;;;5021819;28;20678;-79
2023/04/12 06:38:36;;;;;;;5.27;2.00;;;5.80;99.90;;;;;;5025741;28;20249;-78
2023/04/12 06:41:03;;;;;;;4.50;2.20;;;5.90;99.90;;;;;;5026435;28;20228;-79
2023/04/12 06:43:31;;;;;;;5.53;2.13;;;5.90;99.90;;;;;;5019894;28;20221;-78
2023/04/12 06:45:58;;;;;;;3.90;2.27;;;5.90;99.90;;;;;;5025629;28;20218;-78
2023/04/12 06:48:25;;;;;;;3.00;2.03;;;6.00;99.90;;;;;;5023793;28;20784;-78
2023/04/12 06:50:52;;;;;;;4.60;2.00;;;6.00;99.90;;;;;;5025009;28;20869;-78
2023/04/12 06:53:18;;;;;;;3.10;1.90;;;6.10;99.90;;;;;;5026115;28;20314;-79
2023/04/12 06:55:45;;;;;;;4.27;2.10;;;6.10;99.90;;;;;;5025432;28;20700;-79
2023/04/12 06:58:12;;;;;;;4.33;2.07;;;6.20;99.90;;;;;;5025691;28;20228;-78
2023/04/12 07:00:40;;;;;;;4.87;1.97;;;6.10;99.90;;;;;;5026779;28;20234;-78
2023/04/12 07:03:06;;;;;;;4.47;2.13;;;6.20;99.90;;;;;;5020793;28;20314;-81
2023/04/12 07:05:33;;;;;;;3.90;2.00;;;6.30;99.90;;;;;;5022784;28;20227;-79
2023/04/12 07:07:59;;;;;;;3.03;2.07;;;6.40;99.90;;;;;;5025203;28;20310;-79
2023/04/12 07:10:26;;;;;;;7.13;2.50;;;6.40;99.90;;;;;;5026533;28;20337;-79
2023/04/12 07:12:53;;;;;;;5.13;2.10;;;6.40;99.90;;;;;;5025748;28;20242;-78
2023/04/12 07:15:20;;;;;;;4.23;2.00;;;6.60;99.90;;;;;;5026524;28;20226;-79
2023/04/12 07:17:48;;;;;;;3.57;1.93;;;6.70;99.90;;;;;;5025901;28;20725;-79
2023/04/12 07:20:14;;;;;;;5.07;2.07;;;6.80;99.90;;;;;;5026009;28;20229;-79
2023/04/12 07:22:41;;;;;;;5.77;2.00;;;6.90;99.90;;;;;;5024826;28;20240;-79
2023/04/12 07:25:09;;;;;;;3.83;2.00;;;7.00;99.90;;;;;;5025861;28;20753;-79
2023/04/12 07:27:36;;;;;;;4.27;1.80;;;7.20;99.90;;;;;;5026164;28;20286;-78
2023/04/12 07:30:03;;;;;;;4.43;2.20;;;7.30;99.90;;;;;;5025645;28;20232;-80
2023/04/12 07:32:30;;;;;;;4.53;1.87;;;7.50;99.90;;;;;;5025738;28;20342;-79
2023/04/12 07:34:58;;;;;;;7.13;2.13;;;7.70;99.90;;;;;;5026308;28;20228;-80
2023/04/12 07:37:24;;;;;;;4.73;1.80;;;7.90;99.90;;;;;;5025083;28;20308;-80
2023/04/12 07:39:51;;;;;;;4.83;2.20;;;8.10;99.90;;;;;;5025447;28;20240;-78
2023/04/12 07:42:18;;;;;;;2.93;1.83;;;8.20;99.90;;;;;;5024413;28;20227;-78
2023/04/12 07:44:45;;;;;;;5.43;2.20;;;8.20;99.90;;;;;;5024670;28;20270;-80
2023/04/12 07:47:11;;;;;;;4.63;1.83;;;8.30;99.90;;;;;;5023653;28;20220;-78
2023/04/12 07:49:38;;;;;;;4.20;1.67;;;8.50;99.90;;;;;;5030178;28;20232;-79
2023/04/12 07:52:06;;;;;;;3.07;1.90;;;8.50;99.90;;;;;;5029248;28;20303;-79
2023/04/12 07:54:33;;;;;;;3.13;1.70;;;8.50;99.90;;;;;;5030090;28;20228;-80
2023/04/12 07:57:01;;;;;;;2.50;1.63;;;8.50;99.90;;;;;;5029026;28;20251;-80
2023/04/12 07:59:28;;;;;;;3.20;1.93;;;8.50;99.90;;;;;;5029175;28;20228;-80
2023/04/12 08:01:54;;;;;;;4.03;1.87;;;8.60;99.90;;;;;;5028267;28;20320;-79
2023/04/12 08:04:21;;;;;;;3.57;2.07;;;8.60;99.90;;;;;;5028883;28;20315;-79
2023/04/12 08:06:48;;;;;;;4.27;1.80;;;8.60;99.90;;;;;;5027382;28;20315;-79
2023/04/12 08:09:16;;;;;;;3.93;1.60;;;8.60;99.90;;;;;;5028162;28;20235;-78
2023/04/12 08:11:42;;;;;;;5.30;2.00;;;8.70;99.90;;;;;;5030000;28;20327;-79
2023/04/12 08:14:09;;;;;;;3.23;1.77;;;8.60;99.90;;;;;;5044947;28;20221;-78
2023/04/12 08:16:36;;;;;;;3.10;1.80;;;8.50;99.30;;;;;;5028540;28;20644;-81
2023/04/12 08:19:02;;;;;;;4.23;2.10;;;8.50;99.90;;;;;;5029871;28;20228;-79
2023/04/12 08:21:29;;;;;;;4.77;2.00;;;8.50;99.90;;;;;;5029152;28;20234;-79
2023/04/12 08:23:56;;;;;;;4.60;1.90;;;8.60;99.90;;;;;;5028671;28;20221;-79
2023/04/12 08:26:25;;;;;;;3.63;1.90;;;8.60;99.90;;;;;;5029373;28;20229;-78
2023/04/12 08:28:52;;;;;;;6.47;2.20;;;8.60;99.60;;;;;;5028342;28;20315;-78
2023/04/12 08:31:18;;;;;;;4.37;1.80;;;8.70;99.90;;;;;;5027214;28;20224;-78
2023/04/12 08:33:45;;;;;;;4.03;1.90;;;8.70;99.20;;;;;;5028781;28;20221;-79
2023/04/12 08:36:12;;;;;;;3.90;2.03;;;8.70;99.40;;;;;;5029300;28;20228;-78
2023/04/12 08:38:38;;;;;;;3.83;1.80;;;8.80;99.20;;;;;;5028305;28;20256;-78
2023/04/12 08:41:06;;;;;;;4.90;2.50;;;8.90;99.90;;;;;;5029683;28;20351;-78
2023/04/12 08:43:35;;;;;;;6.03;2.27;;;8.90;99.30;;;;;;5028058;28;20221;-78
2023/04/12 08:46:02;;;;;;;4.53;1.80;;;8.90;99.90;;;;;;5029290;28;20717;-78
2023/04/12 08:48:28;;;;;;;4.07;1.70;;;8.90;98.50;;;;;;5027031;28;20238;-78
2023/04/12 08:50:57;;;;;;;3.90;1.80;;;8.80;99.20;;;;;;5029184;28;20239;-78
2023/04/12 08:53:24;;;;;;;5.57;2.23;;;8.90;98.90;;;;;;5027491;28;20240;-78
2023/04/12 08:55:50;;;;;;;5.67;2.10;;;8.80;98.20;;;;;;5029115;28;20236;-78
2023/04/12 08:58:17;;;;;;;4.77;1.80;;;8.90;99.60;;;;;;5026945;28;20327;-78
2023/04/12 09:00:46;;;;;;;2.30;1.73;;;8.90;99.60;;;;;;5029371;28;20343;-78
2023/04/12 09:03:12;;;;;;;3.13;1.70;;;8.90;99.50;;;;;;5027870;28;20323;-79
2023/04/12 09:05:39;;;;;;;3.97;1.73;;;9.00;99.00;;;;;;5029015;28;20319;-78
2023/04/12 09:08:06;;;;;;;5.53;1.77;;;9.00;99.00;;;;;;5027020;28;20242;-78
2023/04/12 09:10:35;;;;;;;3.93;1.90;;;9.10;98.70;;;;;;5029392;28;20234;-78
2023/04/12 09:13:02;;;;;;;4.07;1.80;;;9.10;97.60;;;;;;5028740;28;20625;-78
2023/04/12 09:15:30;;;;;;;5.43;2.07;;;9.10;98.00;;;;;;5028779;28;20228;-78
2023/04/12 09:18:07;;;;;;;5.77;2.10;;;9.10;99.40;;;;;;5043320;28;20259;-78
2023/04/12 09:20:34;;;;;;;4.47;2.00;;;9.20;98.60;;;;;;5027678;28;20681;-78
2023/04/12 09:23:01;;;;;;;4.70;1.93;;;9.10;98.60;;;;;;5020630;28;20316;-78
2023/04/12 09:25:37;;;;;;;4.40;1.80;;;9.10;98.80;;;;;;5028415;28;20599;-78
2023/04/12 09:28:05;;;;;;;5.90;1.73;;;9.10;98.20;;;;;;5027521;28;20228;-79
2023/04/12 09:30:41;;;;;;;5.83;2.17;;;9.20;97.10;;;;;;5044168;28;20244;-79
2023/04/12 09:33:12;;;;;;;4.33;2.10;;;9.20;97.80;;;;;;5019515;28;20220;-78
2023/04/12 09:35:41;;;;;;;5.17;1.77;;;9.30;98.50;;;;;;5021171;28;20236;-78
2023/04/12 09:38:08;;;;;;;3.17;1.67;;;9.40;98.20;;;;;;5026983;28;20224;-78
2023/04/12 09:40:36;;;;;;;4.43;1.87;;;9.40;98.20;;;;;;5028670;28;20228;-78
2023/04/12 09:43:03;;;;;;;3.20;1.70;;;9.50;97.80;;;;;;5027756;28;21633;-78
2023/04/12 09:45:35;;;;;;;4.93;1.77;;;9.60;97.60;;;;;;5028210;28;20235;-78
2023/04/12 09:48:01;;;;;;;3.33;1.80;;;9.70;99.10;;;;;;5027186;28;20257;-78
2023/04/12 09:50:32;;;;;;;6.00;1.93;;;9.90;98.10;;;;;;5027347;28;20226;-78
2023/04/12 09:52:59;;;;;;;3.13;1.40;;;10.00;98.90;;;;;;5027481;28;20219;-78
2023/04/12 09:55:27;;;;;;;3.67;1.73;;;10.10;98.00;;;;;;5028383;28;20239;-79
2023/04/12 09:57:56;;;;;;;2.60;1.30;;;10.30;98.40;;;;;;5027323;28;20319;-78
2023/04/12 10:00:25;;;;;;;3.13;1.60;;;10.40;97.40;;;;;;5027203;28;20219;-78
2023/04/12 10:02:53;;;;;;;5.30;1.80;;;10.50;97.80;;;;;;5027032;28;21579;-78
2023/04/12 10:05:21;;;;;;;3.27;1.70;;;10.50;95.80;;;;;;5026650;28;20240;-79
2023/04/12 10:07:49;;;;;;;5.97;2.23;;;10.60;96.80;;;;;;5027316;28;20309;-79
2023/04/12 10:10:17;;;;;;;4.63;1.90;;;10.70;96.30;;;;;;5025851;28;20225;-78
2023/04/12 10:12:46;;;;;;;7.03;1.80;;;10.70;97.40;;;;;;5027156;28;20596;-79
2023/04/12 10:15:15;;;;;;;3.40;1.50;;;10.80;97.70;;;;;;5039428;28;20715;-79
2023/04/12 10:17:45;;;;;;;4.53;2.10;;;10.80;96.50;;;;;;5026796;28;20564;-80
2023/04/12 10:20:12;;;;;;;5.67;2.10;;;10.80;96.50;;;;;;5027138;28;20679;-79
2023/04/12 10:22:40;;;;;;;3.57;1.80;;;10.80;96.60;;;;;;5027459;28;20229;-78
2023/04/12 10:25:12;;;;;;;2.87;1.20;;;10.70;96.00;;;;;;5024671;28;20285;-79
2023/04/12 10:27:41;;;;;;;5.80;1.97;;;10.60;95.30;;;;;;5026448;28;20702;-78
2023/04/12 10:30:22;;;;;;;2.90;1.30;;;10.60;95.60;;;;;;5026455;28;20285;-78
2023/04/12 10:32:50;;;;;;;4.20;1.53;;;10.70;96.50;;;;;;5026374;28;20249;-78
2023/04/12 10:35:17;;;;;;;5.10;1.67;;;10.70;96.40;;;;;;5026735;28;20256;-79
2023/04/12 10:38:00;;;;;;;4.53;1.90;;;10.80;96.60;;;;;;5027420;28;21199;-80
2023/04/12 10:40:28;;;;;;;3.80;1.60;;;10.70;95.50;;;;;;5026230;28;20225;-78
2023/04/12 10:43:26;;;;;;;3.30;1.40;;;10.70;96.10;;;;;;5026769;28;20718;-78
2023/04/12 10:45:53;;;;;;;2.83;1.50;;;10.70;95.90;;;;;;5024327;28;20231;-78
2023/04/12 10:48:33;;;;;;;4.37;1.60;;;10.80;96.30;;;;;;5024117;28;20244;-79
2023/04/12 10:51:20;;;;;;;5.20;1.90;;;10.80;97.10;;;;;;5023658;28;20238;-79
2023/04/12 10:53:46;;;;;;;3.00;1.47;;;10.70;97.00;;;;;;5017958;28;20233;-78
2023/04/12 10:56:40;;;;;;;2.97;1.50;;;10.60;96.50;;;;;;5041348;28;20250;-79
2023/04/12 10:59:10;;;;;;;3.87;1.53;;;10.60;96.80;;;;;;5035041;28;20220;-78
2023/04/12 11:02:02;;;;;;;3.10;1.40;;;10.60;97.50;;;;;;5025159;28;20313;-78
2023/04/12 11:04:29;;;;;;;7.37;2.23;;;10.50;98.30;;;;;;5026082;28;20242;-78
2023/04/12 11:07:10;;;;;;;4.17;1.57;;;10.50;97.90;;;;;;5025247;28;20272;-78
2023/04/12 11:09:49;;;;;;;4.43;1.80;;;10.30;98.40;;;;;;5018006;28;20228;-79
2023/04/12 11:12:28;;;;;;;4.10;1.77;;;10.20;99.30;;;;;;5024984;28;20305;-79
2023/04/12 11:15:00;;;;;;;5.07;2.07;;;9.90;99.90;;;;;;5024683;28;20241;-78
2023/04/12 11:17:31;;;;;;;3.57;2.00;;;9.70;99.90;;;;;;5024819;28;20318;-79
2023/04/12 11:20:00;;;;;;;9.67;2.70;;;9.50;99.90;;;;;;5020725;28;20229;-79
2023/04/12 11:22:29;;;;;;;4.30;2.40;;;9.10;99.90;;;;;;5023811;28;20224;-80
2023/04/12 11:24:57;;;;;;;4.40;2.63;;;8.90;99.90;;;;;;5027461;28;20235;-80
2023/04/12 11:27:25;;;;;;;6.60;2.60;;;8.50;99.90;;;;;;5026043;28;20236;-80
2023/04/12 11:29:54;;;;;;;6.87;3.10;;;8.40;99.90;;;;;;5027516;28;20235;-80
2023/04/12 11:32:23;;;;;;;5.60;2.70;;;8.30;99.90;;;;;;5025868;28;20227;-80
2023/04/12 11:34:49;;;;;;;4.77;2.90;;;8.10;99.90;;;;;;5027971;28;20240;-80
2023/04/12 11:37:20;;;;;;;9.83;3.73;;;8.10;99.90;;;;;;5026910;28;20310;-80
2023/04/12 11:39:48;;;;;;;5.90;3.00;;;7.80;99.90;;;;;;5027110;28;20327;-81
2023/04/12 11:42:16;;;;;;;7.57;3.30;;;7.80;99.90;;;;;;5027817;28;20218;-80
2023/04/12 11:44:44;;;;;;;5.70;3.47;;;7.70;99.90;;;;;;5025881;28;20697;-80
2023/04/12 11:47:17;;;;;;;8.97;3.43;;;7.70;99.90;;;;;;5026915;28;20224;-80
2023/04/12 11:49:45;;;;;;;6.23;3.60;;;7.60;99.90;;;;;;5028003;28;20797;-81
2023/04/12 11:52:12;;;;;;;7.37;4.60;;;7.60;99.90;;;;;;5027800;28;20281;-80
2023/04/12 11:54:43;;;;;;;7.47;4.60;;;7.50;99.90;;;;;;5026705;28;20234;-80
2023/04/12 11:57:12;;;;;;;9.40;3.90;;;7.50;99.90;;;;;;5026258;28;20771;-80
2023/04/12 11:59:39;;;;;;;8.07;4.40;;;7.50;99.90;;;;;;5029005;28;20238;-81
2023/04/12 12:02:07;;;;;;;9.50;4.63;;;7.40;99.90;;;;;;5026970;28;20314;-80
2023/04/12 12:04:35;;;;;;;8.60;4.77;;;7.50;99.90;;;;;;5023499;28;20290;-80
2023/04/12 12:07:02;;;;;;;11.70;4.40;;;7.40;99.90;;;;;;5027799;28;20234;-80
2023/04/12 12:09:30;;;;;;;6.30;4.07;;;7.40;99.90;;;;;;5026486;28;20234;-80
2023/04/12 12:11:58;;;;;;;9.07;4.70;;;7.40;99.90;;;;;;5028193;28;20238;-80
2023/04/12 12:14:26;;;;;;;10.07;4.50;;;7.40;99.90;;;;;;5028931;28;20241;-80
2023/04/12 12:16:55;;;;;;;9.93;5.27;;;7.50;99.90;;;;;;5017291;28;20228;-80
2023/04/12 12:19:29;;;;;;;9.30;4.80;;;7.50;99.90;;;;;;5027158;28;20231;-80
2023/04/12 12:22:13;;;;;;;12.80;5.20;;;7.50;99.90;;;;;;5024914;28;20314;-80
2023/04/12 12:24:45;;;;;;;8.87;5.20;;;7.50;99.90;;;;;;5024713;28;20232;-80
2023/04/12 12:27:12;;;;;;;8.80;5.07;;;7.50;99.90;;;;;;5027944;28;20287;-80
2023/04/12 12:29:39;;;;;;;8.93;5.00;;;7.50;99.90;;;;;;5026444;28;20243;-79
2023/04/12 12:32:13;;;;;;;10.47;5.00;;;7.50;99.90;;;;;;5024252;28;20227;-79
2023/04/12 12:34:41;;;;;;;8.20;4.60;;;7.50;99.90;;;;;;5025006;28;20233;-79
2023/04/12 12:37:12;;;;;;;12.07;5.33;;;7.60;99.90;;;;;;5028367;28;20239;-79
2023/04/12 12:39:39;;;;;;;7.50;5.00;;;7.60;99.90;;;;;;5026152;28;20267;-79
2023/04/12 12:42:06;;;;;;;12.73;5.33;;;7.60;99.90;;;;;;5028389;28;20263;-79
2023/04/12 12:44:33;;;;;;;8.60;5.63;;;7.60;99.90;;;;;;5023147;28;20604;-80
2023/04/12 12:47:01;;;;;;;10.60;5.20;;;7.70;99.90;;;;;;5028078;28;20862;-80
2023/04/12 12:49:28;;;;;;;8.70;4.80;;;7.70;99.90;;;;;;5028409;28;20259;-79
2023/04/12 12:51:56;;;;;;;7.87;4.87;;;7.60;99.90;;;;;;5025562;28;20723;-79
2023/04/12 12:54:24;;;;;;;11.27;4.43;;;7.60;99.90;;;;;;5028048;28;20599;-79
2023/04/12 12:56:51;;;;;;;7.40;4.77;;;7.60;99.90;;;;;;5028574;28;20237;-79
2023/04/12 12:59:17;;;;;;;9.87;3.87;;;7.60;99.90;;;;;;5028597;28;20906;-79
2023/04/12 13:01:44;;;;;;;7.27;4.10;;;7.60;99.90;;;;;;5028804;28;20593;-80
2023/04/12 13:04:11;;;;;;;6.67;4.13;;;7.60;99.90;;;;;;5045219;23;20299;-81
2023/04/12 13:06:38;;;;;;;7.17;3.20;;;7.60;99.90;;;;;;5033335;28;20236;-81